Time;durP1;ratioP1;P1;durP2;ratioP2;P2;SDS_P1;SDS_P2;PMS_P1;PMS_P2;Temp;Humidity;BMP_temperature;BMP_pressure;BME280_temperature;BME280_humidity;BME280_pressure;Samples;Min_cycle;Max_cycle;Signal;HPM_P1;HPM_P2
2022/04/08 00:01:18;;;;;;;4.87;2.75;;;;;;;21.66;53.57;96264.72;1833071;78;25580;-87
2022/04/08 00:03:47;;;;;;;3.85;2.35;;;;;;;21.66;53.56;96267.51;1833346;78;25445;-87
2022/04/08 00:06:13;;;;;;;4.67;2.98;;;;;;;21.64;53.56;96254.62;1832801;78;27403;-87
2022/04/08 00:08:39;;;;;;;4.70;2.77;;;;;;;21.62;53.57;96253.68;1834315;77;25753;-87
2022/04/08 00:11:05;;;;;;;4.87;2.90;;;;;;;21.61;53.58;96252.13;1831798;78;25665;-87
2022/04/08 00:13:31;;;;;;;4.25;2.50;;;;;;;21.62;53.56;96253.68;1832096;78;25651;-87
2022/04/08 00:15:57;;;;;;;5.00;2.75;;;;;;;21.60;53.57;96253.36;1832374;78;25706;-87
2022/04/08 00:18:23;;;;;;;4.33;2.35;;;;;;;21.58;53.60;96253.02;1832864;78;26986;-87
2022/04/08 00:20:49;;;;;;;3.90;2.60;;;;;;;21.58;53.59;96250.87;1832688;78;25879;-87
2022/04/08 00:23:16;;;;;;;5.15;2.90;;;;;;;21.57;53.60;96251.47;1833035;78;25500;-87
2022/04/08 00:25:42;;;;;;;3.55;2.20;;;;;;;21.57;53.59;96257.05;1832705;78;25432;-87
2022/04/08 00:28:08;;;;;;;4.97;2.67;;;;;;;21.56;53.56;96264.61;1833258;78;25781;-86
2022/04/08 00:30:34;;;;;;;4.08;2.25;;;;;;;21.55;53.58;96267.84;1833168;78;27537;-87
2022/04/08 00:33:00;;;;;;;3.92;2.52;;;;;;;21.53;53.57;96269.69;1833063;78;25631;-87
2022/04/08 00:35:26;;;;;;;5.25;2.77;;;;;;;21.55;53.57;96277.59;1833205;78;25595;-86
2022/04/08 00:37:52;;;;;;;3.92;2.33;;;;;;;21.53;53.57;96285.02;1833154;78;26169;-86
2022/04/08 00:40:18;;;;;;;3.75;2.15;;;;;;;21.54;53.56;96285.20;1833156;77;25544;-87
2022/04/08 00:42:44;;;;;;;3.85;2.50;;;;;;;21.52;53.57;96296.00;1842247;77;27435;-87
2022/04/08 00:45:11;;;;;;;4.62;2.60;;;;;;;21.52;53.56;96308.54;1858290;77;25598;-87
2022/04/08 00:47:41;;;;;;;4.87;2.67;;;;;;;21.52;53.53;96310.53;1858244;77;25595;-87
2022/04/08 00:50:09;;;;;;;3.70;2.33;;;;;;;21.51;53.54;96317.34;1858150;77;25672;-87
2022/04/08 00:52:36;;;;;;;4.37;2.75;;;;;;;21.51;53.56;96313.95;1857577;76;25436;-86
2022/04/08 00:55:04;;;;;;;3.62;2.27;;;;;;;21.50;53.54;96305.41;1858269;77;27389;-87
2022/04/08 00:57:32;;;;;;;4.15;2.22;;;;;;;21.50;53.52;96307.43;1858207;77;25641;-87
2022/04/08 01:00:07;;;;;;;3.25;2.20;;;;;;;21.48;53.53;96315.45;1858324;77;25730;-87
2022/04/08 01:02:34;;;;;;;4.25;2.52;;;;;;;21.48;53.52;96312.05;1857248;77;26271;-87
2022/04/08 01:05:00;;;;;;;4.67;2.37;;;;;;;21.47;53.50;96313.26;1858242;77;25586;-87
2022/04/08 01:07:27;;;;;;;4.45;2.70;;;;;;;21.46;53.53;96317.88;1858318;77;27284;-87
2022/04/08 01:09:54;;;;;;;3.95;2.30;;;;;;;21.46;53.52;96312.31;1858276;77;25408;-87
2022/04/08 01:12:20;;;;;;;5.05;2.80;;;;;;;21.44;53.49;96319.72;1858235;77;25456;-87
2022/04/08 01:14:46;;;;;;;3.90;2.30;;;;;;;21.45;53.51;96317.13;1858340;77;25470;-86
2022/04/08 01:17:12;;;;;;;4.00;2.22;;;;;;;21.46;53.49;96320.07;1858274;77;25711;-87
2022/04/08 01:19:38;;;;;;;3.22;2.22;;;;;;;21.45;53.49;96328.27;1858373;77;27408;-87
2022/04/08 01:22:05;;;;;;;4.30;2.67;;;;;;;21.43;53.47;96330.11;1858166;77;25408;-87
2022/04/08 01:24:35;;;;;;;3.30;2.30;;;;;;;21.43;53.45;96338.46;1858340;77;25428;-87
2022/04/08 01:27:02;;;;;;;3.77;2.40;;;;;;;21.45;53.47;96343.59;1858373;77;25504;-87
2022/04/08 01:29:28;;;;;;;4.03;2.20;;;;;;;21.44;53.44;96349.77;1857981;77;25598;-87
2022/04/08 01:31:55;;;;;;;3.42;2.12;;;;;;;21.43;53.43;96339.06;1858208;77;27575;-87
2022/04/08 01:34:21;;;;;;;5.30;2.60;;;;;;;21.42;53.46;96344.48;1858257;77;25879;-87
2022/04/08 01:36:47;;;;;;;4.08;2.42;;;;;;;21.41;53.43;96342.30;1858215;77;25444;-86
2022/04/08 01:39:13;;;;;;;3.75;2.45;;;;;;;21.41;53.41;96346.47;1858243;77;26363;-87
2022/04/08 01:41:39;;;;;;;4.20;2.55;;;;;;;21.39;53.45;96353.09;1858269;77;25467;-87
2022/04/08 01:44:05;;;;;;;3.60;2.30;;;;;;;21.39;53.40;96350.94;1849485;77;27349;-87
2022/04/08 01:46:31;;;;;;;3.85;2.12;;;;;;;21.39;53.45;96356.51;1847516;77;25898;-87
2022/04/08 01:48:57;;;;;;;4.03;2.45;;;;;;;21.37;53.42;96359.73;1847561;77;25651;-87
2022/04/08 01:51:24;;;;;;;3.62;2.30;;;;;;;21.40;53.42;96363.63;1847461;77;25618;-87
2022/04/08 01:53:51;;;;;;;3.35;2.10;;;;;;;21.39;53.41;96371.20;1847198;77;25570;-87
2022/04/08 01:56:17;;;;;;;4.58;2.33;;;;;;;21.37;53.40;96370.09;1847611;77;27356;-87
2022/04/08 01:58:43;;;;;;;3.22;1.95;;;;;;;21.38;53.38;96375.22;1847614;77;25709;-87
2022/04/08 02:01:08;;;;;;;4.20;2.20;;;;;;;21.38;53.37;96372.44;1847464;77;25641;-87
2022/04/08 02:03:34;;;;;;;3.83;2.30;;;;;;;21.37;53.35;96378.45;1847479;77;25636;-87
2022/04/08 02:06:01;;;;;;;3.90;2.15;;;;;;;21.35;53.38;96385.85;1847810;77;25581;-87
2022/04/08 02:08:26;;;;;;;2.80;1.82;;;;;;;21.36;53.37;96384.62;1847738;77;27442;-87
2022/04/08 02:10:57;;;;;;;4.12;1.82;;;;;;;21.35;53.34;96392.81;1847666;77;25455;-87
2022/04/08 02:13:21;;;;;;;2.87;1.77;;;;;;;21.34;53.35;96391.27;1845639;77;25672;-86
2022/04/08 02:15:47;;;;;;;4.15;2.55;;;;;;;21.33;53.36;96390.31;1847646;77;26160;-87
2022/04/08 02:18:14;;;;;;;3.60;2.30;;;;;;;21.33;53.34;96395.88;1847909;77;25581;-87
2022/04/08 02:20:42;;;;;;;3.70;2.05;;;;;;;21.31;53.34;96394.33;1847368;77;27407;-87
2022/04/08 02:23:09;;;;;;;3.35;2.00;;;;;;;21.33;53.33;96391.70;1847165;77;25680;-87
2022/04/08 02:25:35;;;;;;;3.70;2.30;;;;;;;21.31;53.34;96392.15;1847667;77;25420;-87
2022/04/08 02:28:05;;;;;;;2.80;1.87;;;;;;;21.30;53.31;96396.92;1847625;77;25434;-87
2022/04/08 02:30:31;;;;;;;3.65;1.95;;;;;;;21.31;53.29;96402.69;1847934;77;25531;-87
2022/04/08 02:32:58;;;;;;;3.30;2.10;;;;;;;21.31;53.31;96411.05;1847667;77;27406;-87
2022/04/08 02:35:24;;;;;;;3.80;2.17;;;;;;;21.30;53.28;96417.81;1847234;77;25634;-87
2022/04/08 02:37:51;;;;;;;3.40;2.17;;;;;;;21.30;53.27;96426.17;1847653;77;25664;-87
2022/04/08 02:40:17;;;;;;;4.03;2.15;;;;;;;21.30;53.24;96429.59;1847316;77;25536;-87
2022/04/08 02:42:43;;;;;;;3.55;2.22;;;;;;;21.27;53.25;96428.45;1846252;75;25709;-87
2022/04/08 02:45:09;;;;;;;3.55;2.05;;;;;;;21.28;53.25;96433.41;1833336;78;26803;-87
2022/04/08 02:47:43;;;;;;;3.47;2.22;;;;;;;21.28;53.25;96445.95;1833003;78;25583;-87
2022/04/08 02:50:10;;;;;;;3.42;2.15;;;;;;;21.27;53.25;96444.40;1833260;77;25453;-87
2022/04/08 02:52:37;;;;;;;3.10;1.98;;;;;;;21.25;53.25;96452.40;1833240;77;26145;-87
2022/04/08 02:55:05;;;;;;;3.85;1.85;;;;;;;21.25;53.26;96451.80;1833220;77;25440;-87
2022/04/08 02:57:32;;;;;;;3.22;1.80;;;;;;;21.25;53.24;96443.44;1833150;77;27573;-87
2022/04/08 03:00:01;;;;;;;3.77;2.10;;;;;;;21.24;53.23;96449.45;1833165;78;25775;-86
2022/04/08 03:02:27;;;;;;;3.75;2.10;;;;;;;21.23;53.23;96457.62;1833122;77;25578;-87
2022/04/08 03:04:53;;;;;;;3.67;2.10;;;;;;;21.23;53.25;96456.23;1833211;78;25646;-87
2022/04/08 03:07:19;;;;;;;3.45;2.20;;;;;;;21.23;53.22;96461.80;1832908;77;25594;-87
2022/04/08 03:09:45;;;;;;;3.25;1.92;;;;;;;21.24;53.21;96468.95;1833292;78;28219;-87
2022/04/08 03:12:11;;;;;;;3.33;1.98;;;;;;;21.22;53.22;96465.81;1833230;77;25834;-86
2022/04/08 03:14:37;;;;;;;3.30;1.70;;;;;;;21.22;53.23;96476.35;1833183;77;25417;-87
2022/04/08 03:17:03;;;;;;;2.98;2.05;;;;;;;21.22;53.22;96482.52;1833219;77;25761;-86
2022/04/08 03:19:29;;;;;;;3.05;1.77;;;;;;;21.20;53.23;96481.57;1833299;78;25454;-86
2022/04/08 03:21:55;;;;;;;4.15;1.92;;;;;;;21.21;53.25;96492.11;1833331;78;27415;-87
2022/04/08 03:24:21;;;;;;;3.08;1.92;;;;;;;21.20;53.24;96506.63;1832748;77;25988;-86
2022/04/08 03:26:48;;;;;;;3.20;2.10;;;;;;;21.19;53.24;96505.84;1833097;77;25641;-87
2022/04/08 03:29:15;;;;;;;3.60;2.02;;;;;;;21.18;53.23;96507.08;1832897;78;25441;-87
2022/04/08 03:31:41;;;;;;;3.12;1.87;;;;;;;21.17;53.23;96513.88;1832970;77;25438;-87
2022/04/08 03:34:06;;;;;;;4.25;1.90;;;;;;;21.18;53.24;96507.67;1833164;78;27450;-87
2022/04/08 03:36:33;;;;;;;3.08;1.90;;;;;;;21.15;53.22;96506.55;1833167;78;25745;-87
2022/04/08 03:38:59;;;;;;;3.10;2.02;;;;;;;21.17;53.23;96500.55;1832837;77;25571;-86
2022/04/08 03:41:25;;;;;;;4.08;2.17;;;;;;;21.17;53.20;96501.94;1833132;78;25394;-87
2022/04/08 03:43:50;;;;;;;3.10;2.00;;;;;;;21.17;53.19;96498.55;1839194;77;25419;-86
2022/04/08 03:46:17;;;;;;;2.90;1.52;;;;;;;21.15;53.19;96496.81;1847692;77;27358;-87
2022/04/08 03:48:43;;;;;;;2.60;1.87;;;;;;;21.14;53.24;96503.61;1847459;77;25443;-87
2022/04/08 03:51:10;;;;;;;5.00;1.65;;;;;;;21.13;53.23;96503.42;1847591;77;25403;-87
2022/04/08 03:53:36;;;;;;;3.33;2.10;;;;;;;21.15;53.21;96511.33;1847538;77;25622;-87
2022/04/08 03:56:02;;;;;;;3.50;1.62;;;;;;;21.14;53.23;96523.70;1847683;77;25451;-86
2022/04/08 03:58:29;;;;;;;3.02;1.90;;;;;;;21.13;53.21;96531.89;1847704;77;28245;-87
2022/04/08 04:00:56;;;;;;;2.92;2.00;;;;;;;21.13;53.22;96539.62;1847509;77;25458;-86
2022/04/08 04:03:22;;;;;;;3.27;2.00;;;;;;;21.11;53.23;96533.72;1847226;77;25692;-86
2022/04/08 04:05:49;;;;;;;3.02;1.80;;;;;;;21.10;53.23;96537.70;1847606;77;26212;-86
2022/04/08 04:08:18;;;;;;;3.00;2.10;;;;;;;21.11;53.23;96546.86;1847276;77;25705;-86
2022/04/08 04:10:42;;;;;;;2.40;1.50;;;;;;;21.11;53.23;96550.43;1846982;77;27302;-86
2022/04/08 04:13:08;;;;;;;2.87;1.75;;;;;;;21.10;53.24;96550.23;1847575;77;25693;-86
2022/04/08 04:15:34;;;;;;;3.15;1.95;;;;;;;21.10;53.23;96564.16;1847815;77;25642;-86
2022/04/08 04:18:00;;;;;;;2.12;1.50;;;;;;;21.09;53.22;96558.43;1847484;77;26273;-87
2022/04/08 04:20:26;;;;;;;2.33;1.60;;;;;;;21.10;53.24;96559.22;1847616;77;25423;-87
2022/04/08 04:22:53;;;;;;;3.70;1.92;;;;;;;21.09;53.24;96560.42;1847491;77;27395;-87
2022/04/08 04:25:19;;;;;;;2.98;1.90;;;;;;;21.07;53.23;96553.89;1847128;77;25653;-87
2022/04/08 04:27:45;;;;;;;3.17;1.85;;;;;;;21.07;53.24;96560.86;1847652;77;25669;-87
2022/04/08 04:30:12;;;;;;;3.35;1.90;;;;;;;21.07;53.21;96567.81;1847640;77;25569;-87
2022/04/08 04:32:38;;;;;;;3.22;1.65;;;;;;;21.07;53.21;96571.99;1847668;77;25629;-87
2022/04/08 04:35:08;;;;;;;2.92;1.80;;;;;;;21.07;53.21;96584.52;1847675;77;27425;-87
2022/04/08 04:37:37;;;;;;;3.17;1.80;;;;;;;21.06;53.25;96593.50;1847705;77;34584;-87
2022/04/08 04:40:05;;;;;;;3.12;1.70;;;;;;;21.05;53.24;96581.41;1847232;77;25631;-86
2022/04/08 04:42:32;;;;;;;2.92;1.90;;;;;;;21.04;53.22;96598.72;1847656;77;25498;-87
2022/04/08 04:44:57;;;;;;;3.33;1.95;;;;;;;21.04;53.27;96600.11;1847318;77;25427;-87
2022/04/08 04:47:24;;;;;;;4.58;1.82;;;;;;;21.04;53.25;96607.70;1847569;77;27545;-86
2022/04/08 04:49:50;;;;;;;2.60;1.87;;;;;;;21.02;53.32;96608.73;1847537;77;26090;-86
2022/04/08 04:52:16;;;;;;;3.08;1.77;;;;;;;20.98;53.34;96617.79;1847455;77;25665;-87
2022/04/08 04:54:42;;;;;;;2.52;1.70;;;;;;;20.95;53.25;96623.59;1847720;77;25908;-87
2022/04/08 04:57:08;;;;;;;2.77;1.70;;;;;;;20.95;53.30;96631.95;1847516;77;25559;-87
2022/04/08 04:59:34;;;;;;;3.47;1.70;;;;;;;20.97;53.33;96622.56;1847628;77;28321;-87
2022/04/08 05:02:00;;;;;;;4.35;1.72;;;;;;;20.98;53.28;96634.49;1847495;77;25985;-87
2022/04/08 05:04:26;;;;;;;3.33;2.02;;;;;;;20.97;53.24;96630.91;1847419;77;25505;-87
2022/04/08 05:06:52;;;;;;;3.20;1.70;;;;;;;20.98;53.18;96641.45;1847568;77;25614;-87
2022/04/08 05:09:19;;;;;;;2.33;1.50;;;;;;;21.00;53.16;96648.75;1847655;77;25677;-87
2022/04/08 05:11:45;;;;;;;3.83;1.90;;;;;;;20.99;53.13;96645.80;1847565;77;27380;-87
2022/04/08 05:14:11;;;;;;;4.37;1.57;;;;;;;21.00;53.13;96655.11;1847480;77;25657;-87
2022/04/08 05:16:37;;;;;;;3.98;2.00;;;;;;;20.99;53.10;96661.91;1847628;77;25633;-87
2022/04/08 05:19:03;;;;;;;2.20;1.47;;;;;;;20.97;53.21;96660.75;1847460;77;26175;-87
2022/04/08 05:21:29;;;;;;;3.40;1.50;;;;;;;20.97;53.18;96669.09;1847485;77;25708;-87
2022/04/08 05:23:56;;;;;;;2.55;1.82;;;;;;;20.98;53.19;96667.91;1847172;77;27514;-87
2022/04/08 05:26:22;;;;;;;3.20;1.77;;;;;;;20.97;53.19;96669.89;1847353;77;25421;-87
2022/04/08 05:28:49;;;;;;;3.35;1.90;;;;;;;20.98;53.17;96670.69;1847590;77;25724;-87
2022/04/08 05:31:15;;;;;;;3.20;1.77;;;;;;;20.98;53.18;96681.83;1847422;77;25435;-86
2022/04/08 05:33:41;;;;;;;3.87;1.67;;;;;;;20.98;53.19;96683.98;1847597;77;25416;-87
2022/04/08 05:36:07;;;;;;;3.15;1.80;;;;;;;20.98;53.18;96685.37;1847586;77;27559;-87
2022/04/08 05:38:33;;;;;;;3.00;1.92;;;;;;;20.99;53.17;96682.78;1847393;77;25395;-87
2022/04/08 05:40:59;;;;;;;2.50;1.70;;;;;;;20.98;53.18;96688.16;1847490;77;25474;-87
2022/04/08 05:43:26;;;;;;;2.58;1.60;;;;;;;20.98;53.21;96698.53;1847531;77;25625;-87
2022/04/08 05:45:52;;;;;;;2.50;1.60;;;;;;;20.98;53.22;96703.47;1822987;78;25646;-86
2022/04/08 05:48:19;;;;;;;3.45;1.90;;;;;;;20.98;53.23;96715.23;1823086;78;27425;-86
2022/04/08 05:50:44;;;;;;;3.22;1.80;;;;;;;20.96;53.26;96718.45;1823142;78;25401;-86
2022/04/08 05:53:11;;;;;;;2.42;1.55;;;;;;;20.96;53.27;96720.44;1823140;78;25674;-87
2022/04/08 05:55:37;;;;;;;2.77;1.60;;;;;;;20.94;53.35;96723.66;1823224;78;25474;-87
2022/04/08 05:58:03;;;;;;;3.12;1.77;;;;;;;20.90;53.25;96720.14;1823294;78;25540;-86
2022/04/08 06:00:31;;;;;;;3.42;1.82;;;;;;;20.89;53.32;96726.31;1823082;78;28332;-86
2022/04/08 06:02:57;;;;;;;3.52;1.92;;;;;;;20.89;53.29;96722.13;1822838;78;25590;-87
2022/04/08 06:05:24;;;;;;;4.03;1.60;;;;;;;20.91;53.22;96733.66;1822855;78;25657;-87
2022/04/08 06:07:56;;;;;;;4.55;1.57;;;;;;;20.92;53.20;96733.03;1823188;78;25418;-87
2022/04/08 06:10:24;;;;;;;3.22;1.95;;;;;;;20.92;53.17;96730.25;1822919;78;25678;-86
2022/04/08 06:12:52;;;;;;;3.20;2.10;;;;;;;20.92;53.16;96731.64;1822803;78;27467;-87
2022/04/08 06:15:19;;;;;;;3.70;1.77;;;;;;;20.91;53.17;96742.02;1822932;78;25647;-86
2022/04/08 06:17:46;;;;;;;5.40;2.35;;;;;;;20.92;53.17;96738.61;1823213;78;25409;-87
2022/04/08 06:20:17;;;;;;;4.55;2.50;;;;;;;20.94;53.05;96741.75;1823173;78;25669;-86
2022/04/08 06:22:47;;;;;;;8.00;3.00;;;;;;;20.93;53.09;96733.23;1822958;78;25635;-87
2022/04/08 06:25:16;;;;;;;5.17;2.85;;;;;;;20.94;53.01;96743.14;1822929;78;27490;-87
2022/04/08 06:27:46;;;;;;;5.33;3.20;;;;;;;20.92;53.02;96744.17;1823187;78;25647;-87
2022/04/08 06:30:17;;;;;;;7.62;3.08;;;;;;;20.91;53.04;96744.80;1823021;78;25646;-87
2022/04/08 06:32:43;;;;;;;6.40;3.52;;;;;;;20.92;53.05;96753.92;1822913;78;25643;-87
2022/04/08 06:35:10;;;;;;;7.55;4.28;;;;;;;20.95;53.25;96755.08;1823383;78;25606;-86
2022/04/08 06:37:37;;;;;;;8.83;4.00;;;;;;;20.97;52.98;96756.80;1822825;78;28241;-87
2022/04/08 06:40:06;;;;;;;13.68;4.50;;;;;;;20.99;53.00;96757.16;1823148;78;25891;-87
2022/04/08 06:42:33;;;;;;;6.58;4.37;;;;;;;21.01;52.88;96761.08;1823254;78;25684;-87
2022/04/08 06:45:00;;;;;;;7.15;4.33;;;;;;;21.04;52.75;96765.02;1835394;77;25460;-87
2022/04/08 06:47:27;;;;;;;8.03;4.70;;;;;;;21.07;52.65;96759.95;1847528;77;25588;-87
2022/04/08 06:49:54;;;;;;;7.65;4.53;;;;;;;21.11;52.65;96776.59;1847698;77;27468;-87
2022/04/08 06:52:20;;;;;;;9.18;5.17;;;;;;;21.13;52.60;96774.17;1847524;77;25620;-87
2022/04/08 06:54:46;;;;;;;9.38;5.22;;;;;;;21.17;52.58;96759.55;1847585;77;25635;-87
2022/04/08 06:57:13;;;;;;;9.43;5.12;;;;;;;21.19;52.58;96765.48;1847756;77;25649;-87
2022/04/08 06:59:41;;;;;;;9.55;5.30;;;;;;;21.22;52.51;96778.55;1847787;77;25706;-86
2022/04/08 07:02:09;;;;;;;7.95;4.90;;;;;;;21.27;52.42;96778.64;1847276;77;28243;-87
2022/04/08 07:04:36;;;;;;;10.03;5.20;;;;;;;21.29;51.90;96786.73;1847592;77;25388;-87
2022/04/08 07:07:06;;;;;;;9.35;5.20;;;;;;;21.34;52.09;96788.83;1821628;77;25700;-87
2022/04/08 07:09:34;;;;;;;8.13;5.03;;;;;;;21.36;52.02;96796.92;1847523;77;25610;-87
2022/04/08 07:12:01;;;;;;;9.55;5.50;;;;;;;21.40;51.99;96798.23;1847637;77;25748;-87
2022/04/08 07:14:28;;;;;;;8.38;4.65;;;;;;;21.42;51.83;96783.28;1847622;77;28159;-87
2022/04/08 07:16:54;;;;;;;8.60;4.87;;;;;;;21.46;51.75;96794.32;1847503;77;25476;-87
2022/04/08 07:19:20;;;;;;;7.37;4.60;;;;;;;21.47;51.66;96791.11;1847694;77;25578;-86
2022/04/08 07:21:46;;;;;;;9.43;4.75;;;;;;;21.50;51.57;96796.44;1847621;77;26214;-87
2022/04/08 07:24:12;;;;;;;8.03;4.75;;;;;;;21.53;51.49;96798.36;1847590;77;25384;-87
2022/04/08 07:26:38;;;;;;;7.42;4.97;;;;;;;21.55;51.47;96788.34;1847674;77;27412;-87
2022/04/08 07:29:05;;;;;;;12.03;4.65;;;;;;;21.58;51.19;96799.84;1847575;77;25405;-87
2022/04/08 07:31:31;;;;;;;9.23;4.40;;;;;;;21.61;51.10;96801.73;1847575;77;25717;-87
2022/04/08 07:33:57;;;;;;;6.30;4.12;;;;;;;21.64;51.06;96816.20;1847675;77;25646;-87
2022/04/08 07:36:23;;;;;;;7.60;4.00;;;;;;;21.67;51.03;96819.52;1847574;77;25550;-87
2022/04/08 07:38:49;;;;;;;8.18;4.28;;;;;;;21.67;50.90;96809.16;1847677;77;27443;-87
2022/04/08 07:41:16;;;;;;;6.20;4.15;;;;;;;21.71;50.84;96809.69;1847535;77;25664;-86
2022/04/08 07:43:42;;;;;;;7.65;4.00;;;;;;;21.73;50.78;96817.78;1847658;77;25660;-87
2022/04/08 07:46:08;;;;;;;8.55;4.47;;;;;;;21.77;50.61;96831.67;1834984;77;25761;-87
2022/04/08 07:48:34;;;;;;;9.40;4.20;;;;;;;21.79;50.58;96825.06;1832844;78;25678;-87
2022/04/08 07:51:01;;;;;;;7.45;4.10;;;;;;;21.82;50.54;96833.95;1833184;77;27574;-87
2022/04/08 07:53:27;;;;;;;5.87;3.98;;;;;;;21.85;50.41;96831.69;1833069;77;25412;-87
2022/04/08 07:55:53;;;;;;;6.87;3.47;;;;;;;21.88;50.33;96840.55;1833196;78;25579;-87
2022/04/08 07:58:20;;;;;;;6.12;3.55;;;;;;;21.91;50.26;96844.49;1833003;78;26147;-88
2022/04/08 08:00:46;;;;;;;6.72;3.55;;;;;;;21.93;50.13;96844.82;1833361;78;25440;-87
2022/04/08 08:03:15;;;;;;;5.35;3.42;;;;;;;21.96;50.06;96855.11;1833223;78;27395;-87
2022/04/08 08:05:41;;;;;;;7.55;3.58;;;;;;;22.00;49.97;96854.43;1832685;77;25623;-87
2022/04/08 08:08:07;;;;;;;6.28;3.72;;;;;;;22.03;49.79;96869.50;1833172;77;25420;-87
2022/04/08 08:10:39;;;;;;;6.00;3.67;;;;;;;22.05;49.70;96870.63;1833103;78;26156;-87
2022/04/08 08:13:05;;;;;;;5.10;3.30;;;;;;;22.08;49.58;96862.61;1832833;78;25449;-87
2022/04/08 08:15:33;;;;;;;4.97;3.08;;;;;;;22.10;49.55;96877.69;1833210;77;26810;-87
2022/04/08 08:18:00;;;;;;;5.40;2.98;;;;;;;22.12;49.53;96889.80;1832961;78;25791;-87
2022/04/08 08:20:26;;;;;;;5.03;3.12;;;;;;;22.13;49.47;96887.97;1833183;78;25686;-87
2022/04/08 08:22:53;;;;;;;5.87;3.25;;;;;;;22.15;49.38;96877.17;1833098;78;25622;-87
2022/04/08 08:25:21;;;;;;;4.87;2.90;;;;;;;22.16;49.31;96902.44;1833080;78;25679;-87
2022/04/08 08:27:54;;;;;;;5.15;2.70;;;;;;;22.17;49.21;96896.27;1832920;78;27565;-87
2022/04/08 08:30:21;;;;;;;6.20;2.75;;;;;;;22.18;49.14;96896.43;1833151;78;25576;-87
2022/04/08 08:32:50;;;;;;;6.78;3.15;;;;;;;22.19;48.91;96912.73;1833059;78;25433;-87
2022/04/08 08:35:18;;;;;;;6.50;2.70;;;;;;;22.21;48.89;96912.30;1833157;77;25397;-87
2022/04/08 08:37:45;;;;;;;5.42;2.55;;;;;;;22.20;48.76;96917.71;1833141;78;25461;-87
2022/04/08 08:40:14;;;;;;;5.67;2.80;;;;;;;22.17;48.58;96912.38;1833088;78;28343;-87
2022/04/08 08:42:42;;;;;;;4.12;2.87;;;;;;;22.18;48.35;96918.14;1832645;78;25863;-87
2022/04/08 08:45:12;;;;;;;3.80;2.50;;;;;;;22.19;48.17;96916.91;1832962;77;25642;-87
2022/04/08 08:47:39;;;;;;;6.80;2.90;;;;;;;22.19;48.12;96919.70;1833245;78;25642;-87
2022/04/08 08:50:07;;;;;;;3.45;2.50;;;;;;;22.17;48.14;96909.58;1821557;78;25500;-86
2022/04/08 08:52:34;;;;;;;4.67;2.45;;;;;;;22.19;48.09;96912.73;1832943;78;27531;-86
2022/04/08 08:55:08;;;;;;;3.75;2.15;;;;;;;22.21;48.10;96908.11;1833010;78;25830;-87
2022/04/08 08:57:34;;;;;;;4.50;2.30;;;;;;;22.21;48.11;96916.48;1833183;78;25755;-87
2022/04/08 09:00:12;;;;;;;6.47;2.52;;;;;;;22.23;48.28;96909.87;1833104;77;26187;-86
2022/04/08 09:02:38;;;;;;;4.70;1.95;;;;;;;22.24;48.28;96912.03;1832916;76;25445;-86
2022/04/08 09:05:18;;;;;;;4.35;2.50;;;;;;;22.23;48.28;96924.41;1832979;78;27443;-87
2022/04/08 09:07:55;;;;;;;5.65;2.50;;;;;;;22.24;48.38;96927.38;1832368;77;25831;-86
2022/04/08 09:10:34;;;;;;;4.60;2.22;;;;;;;22.23;48.46;96925.81;1833276;78;25445;-87
2022/04/08 09:13:02;;;;;;;5.35;2.35;;;;;;;22.25;48.51;96917.80;1833215;78;25556;-87
2022/04/08 09:15:29;;;;;;;4.00;2.25;;;;;;;22.25;48.50;96896.88;1832780;77;25716;-88
2022/04/08 09:18:12;;;;;;;3.75;2.17;;;;;;;22.26;48.50;96917.37;1833077;78;27363;-88
2022/04/08 09:20:42;;;;;;;4.25;2.20;;;;;;;22.28;48.48;96930.25;1833004;78;25697;-89
2022/04/08 09:23:09;;;;;;;3.25;2.10;;;;;;;22.28;48.46;96923.28;1833142;77;25626;-87
2022/04/08 09:25:37;;;;;;;3.75;2.05;;;;;;;22.31;48.45;96924.43;1833002;77;26201;-87
2022/04/08 09:28:09;;;;;;;3.27;1.90;;;;;;;22.30;48.43;96922.24;1832763;78;25402;-87
2022/04/08 09:30:36;;;;;;;4.55;2.47;;;;;;;22.32;48.40;96925.99;1833050;78;27372;-87
2022/04/08 09:33:19;;;;;;;3.12;1.62;;;;;;;22.33;48.38;96928.95;1832992;78;25559;-87
2022/04/08 09:35:47;;;;;;;3.35;1.95;;;;;;;22.34;48.28;96936.11;1832341;78;25588;-89
2022/04/08 09:38:25;;;;;;;3.42;1.75;;;;;;;22.34;48.26;96941.70;1833043;78;25645;-87
2022/04/08 09:41:10;;;;;;;2.65;1.72;;;;;;;22.36;48.22;96947.61;1832263;78;25428;-87
2022/04/08 09:43:39;;;;;;;3.37;1.87;;;;;;;22.37;48.11;96926.08;1832748;78;27434;-88
2022/04/08 09:46:24;;;;;;;2.87;1.67;;;;;;;22.37;48.03;96927.48;1841358;77;25633;-87
2022/04/08 09:48:50;;;;;;;4.42;1.67;;;;;;;22.37;47.99;96937.23;1847243;77;25376;-87
2022/04/08 09:51:21;;;;;;;3.12;1.80;;;;;;;22.37;47.99;96934.45;1847563;77;25434;-87
2022/04/08 09:54:00;;;;;;;3.33;1.80;;;;;;;22.37;47.91;96941.42;1847440;77;25705;-87
2022/04/08 09:56:28;;;;;;;4.05;1.65;;;;;;;22.34;47.75;96934.72;1847714;77;27425;-88
2022/04/08 09:59:19;;;;;;;2.35;1.72;;;;;;;22.37;47.53;96931.66;1847328;77;25669;-88
2022/04/08 10:01:47;;;;;;;4.42;1.70;;;;;;;22.36;47.43;96930.87;1847094;77;25692;-87
2022/04/08 10:04:14;;;;;;;3.25;1.57;;;;;;;22.34;47.44;96945.09;1847106;77;26247;-85
2022/04/08 10:06:42;;;;;;;5.95;1.50;;;;;;;22.32;47.43;96948.31;1847527;77;25562;-84
2022/04/08 10:09:13;;;;;;;2.45;1.37;;;;;;;22.32;47.41;96941.34;1847546;77;27420;-85
2022/04/08 10:11:54;;;;;;;9.08;1.60;;;;;;;22.30;47.51;96950.14;1847494;77;25655;-84
2022/04/08 10:14:44;;;;;;;4.08;1.67;;;;;;;22.30;47.39;96940.98;1847003;77;25428;-85
2022/04/08 10:17:11;;;;;;;6.58;2.20;;;;;;;22.30;47.52;96946.56;1830740;77;25511;-84
2022/04/08 10:19:37;;;;;;;3.72;1.70;;;;;;;22.29;47.42;96946.39;1847538;77;25581;-85
2022/04/08 10:22:17;;;;;;;3.72;1.50;;;;;;;22.28;47.36;96959.55;1847549;77;27329;-84
2022/04/08 10:24:57;;;;;;;5.75;2.12;;;;;;;22.28;47.43;96955.36;1847758;77;25692;-85
2022/04/08 10:27:32;;;;;;;4.85;1.57;;;;;;;22.26;47.38;96950.05;1847792;77;34780;-84
2022/04/08 10:29:59;;;;;;;2.62;1.22;;;;;;;22.25;47.21;96942.28;1847257;77;25622;-85
2022/04/08 10:32:38;;;;;;;5.12;1.37;;;;;;;22.25;47.06;96958.26;1847845;77;25398;-86
2022/04/08 10:35:19;;;;;;;9.78;1.85;;;;;;;22.25;47.04;96959.02;1847418;77;27437;-85
2022/04/08 10:38:02;;;;;;;2.15;1.40;;;;;;;22.25;46.98;96958.26;1847647;77;25919;-86
2022/04/08 10:40:39;;;;;;;5.35;1.50;;;;;;;22.24;46.87;96961.64;1847704;77;25588;-86
2022/04/08 10:43:09;;;;;;;3.50;1.32;;;;;;;22.24;46.79;96963.64;1846929;77;26249;-86
2022/04/08 10:45:38;;;;;;;3.77;1.40;;;;;;;22.23;46.70;96971.84;1850416;77;25816;-85
2022/04/08 10:48:14;;;;;;;4.72;1.20;;;;;;;22.22;46.71;96962.68;1858386;77;27368;-85
2022/04/08 10:50:42;;;;;;;4.85;1.50;;;;;;;22.21;46.59;96957.53;1858543;77;25739;-87
2022/04/08 10:53:11;;;;;;;2.08;1.32;;;;;;;22.18;46.65;96952.22;1858499;77;25776;-84
2022/04/08 10:55:53;;;;;;;3.20;1.23;;;;;;;22.20;46.57;96956.77;1858574;77;26192;-84
2022/04/08 10:58:33;;;;;;;4.85;1.40;;;;;;;22.19;46.61;96949.00;1858048;77;25565;-86
2022/04/08 11:01:00;;;;;;;7.80;1.60;;;;;;;22.18;46.61;96949.43;1856535;76;27371;-88
2022/04/08 11:03:29;;;;;;;8.20;1.40;;;;;;;22.16;46.60;96961.02;1858420;77;25697;-87
2022/04/08 11:05:56;;;;;;;4.65;1.30;;;;;;;22.16;46.54;96960.23;1858342;77;25384;-87
2022/04/08 11:08:26;;;;;;;3.45;1.40;;;;;;;22.15;46.48;96963.65;1858371;77;25482;-87
2022/04/08 11:10:59;;;;;;;2.42;1.12;;;;;;;22.13;46.41;96968.86;1858435;77;25683;-87
2022/04/08 11:13:26;;;;;;;2.80;1.35;;;;;;;22.13;46.31;96973.05;1858431;77;27453;-85
2022/04/08 11:15:53;;;;;;;4.00;1.35;;;;;;;22.12;46.39;96968.70;1858373;77;25780;-86
2022/04/08 11:18:19;;;;;;;5.15;1.35;;;;;;;22.10;46.39;96958.58;1858377;77;25439;-86
2022/04/08 11:20:49;;;;;;;8.18;1.72;;;;;;;22.08;46.40;96959.64;1858506;77;25378;-86
2022/04/08 11:23:28;;;;;;;4.83;1.50;;;;;;;22.08;46.42;96961.03;1858620;77;25609;-86
2022/04/08 11:25:55;;;;;;;3.83;1.50;;;;;;;22.06;46.49;96949.52;1858281;77;27306;-86
2022/04/08 11:28:23;;;;;;;5.70;1.30;;;;;;;22.04;46.42;96946.36;1858262;77;25699;-86
2022/04/08 11:30:59;;;;;;;7.80;1.70;;;;;;;22.04;46.48;96950.55;1858304;77;25416;-86
2022/04/08 11:33:26;;;;;;;3.77;1.50;;;;;;;22.03;46.48;96949.78;1858481;77;25427;-86
2022/04/08 11:36:00;;;;;;;2.40;1.50;;;;;;;22.00;46.49;96941.48;1858585;77;25622;-86
2022/04/08 11:38:30;;;;;;;3.47;1.37;;;;;;;21.99;46.50;96942.71;1857985;77;27562;-86